Time;durP1;ratioP1;P1;durP2;ratioP2;P2;SDS_P1;SDS_P2;PMS_P1;PMS_P2;Temp;Humidity;BMP_temperature;BMP_pressure;BME280_temperature;BME280_humidity;BME280_pressure;Samples;Min_cycle;Max_cycle;Signal;HPM_P1;HPM_P2
2023/12/15 00:00:25;;;;;;;8.38;4.25;;;;;;;8.34;59.23;102287.47;5002055;28;20057;-41
2023/12/15 00:02:51;;;;;;;8.30;4.45;;;;;;;8.35;59.36;102280.50;4996710;28;20034;-41
2023/12/15 00:05:16;;;;;;;7.93;4.50;;;;;;;8.36;59.28;102285.69;4999294;28;20038;-41
2023/12/15 00:07:42;;;;;;;8.07;4.97;;;;;;;8.37;59.18;102289.19;5004094;28;20418;-41
2023/12/15 00:10:08;;;;;;;9.30;4.68;;;;;;;8.39;58.88;102297.88;4991007;28;20045;-41
2023/12/15 00:12:34;;;;;;;12.20;5.20;;;;;;;8.41;58.75;102301.31;5001863;28;20034;-41
2023/12/15 00:14:59;;;;;;;9.20;4.68;;;;;;;8.41;59.26;102303.09;5002936;28;20033;-41
2023/12/15 00:17:26;;;;;;;13.05;5.80;;;;;;;8.39;58.95;102303.97;4998345;28;20438;-41
2023/12/15 00:19:52;;;;;;;12.45;5.97;;;;;;;8.39;59.20;102303.13;5000306;28;20038;-41
2023/12/15 00:22:17;;;;;;;10.75;4.80;;;;;;;8.38;59.55;102310.13;5004626;28;20033;-41
2023/12/15 00:24:42;;;;;;;10.23;5.00;;;;;;;8.35;59.54;102311.97;5005208;28;20034;-41
2023/12/15 00:27:08;;;;;;;10.45;5.07;;;;;;;8.35;59.46;102314.59;5003927;28;20168;-41
2023/12/15 00:29:33;;;;;;;16.85;6.32;;;;;;;8.36;59.66;102319.78;4999529;28;20103;-41
2023/12/15 00:31:59;;;;;;;12.27;5.60;;;;;;;8.26;59.83;102326.16;4998801;28;20033;-41
2023/12/15 00:34:24;;;;;;;8.15;3.60;;;;;;;8.25;59.87;102327.03;5002922;28;20041;-41
2023/12/15 00:36:50;;;;;;;12.55;5.55;;;;;;;8.22;59.88;102327.09;5006287;28;20032;-41
2023/12/15 00:39:15;;;;;;;9.73;5.25;;;;;;;8.22;60.13;102335.84;5001410;28;20088;-41
2023/12/15 00:41:41;;;;;;;11.18;4.97;;;;;;;8.16;60.05;102343.00;4996476;28;20385;-41
2023/12/15 00:44:06;;;;;;;9.90;4.82;;;;;;;8.15;60.02;102342.13;5014416;28;20064;-41
2023/12/15 00:46:32;;;;;;;8.57;4.82;;;;;;;8.10;59.68;102338.72;5007767;28;20038;-41
2023/12/15 00:48:57;;;;;;;11.70;6.32;;;;;;;8.06;60.18;102347.56;5004490;28;20033;-41
2023/12/15 00:51:23;;;;;;;8.98;4.57;;;;;;;8.09;59.97;102350.13;5003066;28;20061;-40
2023/12/15 00:53:49;;;;;;;11.32;5.78;;;;;;;8.00;60.08;102343.31;4999118;28;20025;-41
2023/12/15 00:56:14;;;;;;;9.93;5.53;;;;;;;8.04;60.16;102347.56;5005507;28;20451;-41
2023/12/15 00:58:39;;;;;;;10.35;5.25;;;;;;;8.09;60.22;102347.50;5000996;28;20060;-41
2023/12/15 01:01:06;;;;;;;10.35;4.80;;;;;;;8.05;60.41;102351.09;4999701;28;20065;-39
2023/12/15 01:03:32;;;;;;;10.63;4.78;;;;;;;8.12;59.97;102354.44;5003537;28;20389;-39
2023/12/15 01:05:57;;;;;;;14.63;6.50;;;;;;;8.11;60.01;102348.31;5003997;28;20472;-39
2023/12/15 01:08:23;;;;;;;15.32;7.20;;;;;;;8.09;60.49;102348.34;4998367;28;20037;-38
2023/12/15 01:10:48;;;;;;;8.55;4.35;;;;;;;8.14;59.79;102358.75;5000969;28;20144;-38
2023/12/15 01:13:14;;;;;;;13.43;7.22;;;;;;;8.14;59.80;102356.13;4997572;28;20094;-38
2023/12/15 01:15:40;;;;;;;15.85;7.50;;;;;;;8.13;59.60;102359.63;5002184;28;20094;-38
2023/12/15 01:18:05;;;;;;;21.40;7.68;;;;;;;8.14;59.46;102363.13;4997901;28;20038;-38
2023/12/15 01:20:30;;;;;;;16.40;8.13;;;;;;;8.09;59.65;102352.75;4992093;28;20115;-38
2023/12/15 01:22:56;;;;;;;15.40;6.95;;;;;;;8.09;59.43;102365.88;5000488;28;20038;-39
2023/12/15 01:25:21;;;;;;;17.25;6.13;;;;;;;8.06;59.20;102358.91;4998822;28;20038;-38
2023/12/15 01:27:47;;;;;;;19.60;9.57;;;;;;;8.02;59.75;102369.50;4997582;28;20757;-38
2023/12/15 01:30:12;;;;;;;16.75;8.18;;;;;;;8.00;59.66;102376.53;5003531;28;20432;-39
2023/12/15 01:32:38;;;;;;;15.02;6.70;;;;;;;7.92;60.00;102372.31;4999479;28;20038;-39
2023/12/15 01:35:04;;;;;;;13.93;6.32;;;;;;;7.83;59.73;102371.63;4988116;28;20030;-39
2023/12/15 01:37:30;;;;;;;11.57;5.45;;;;;;;7.83;59.78;102372.47;5004012;28;20050;-39
2023/12/15 01:39:55;;;;;;;12.02;5.88;;;;;;;7.84;59.94;102379.44;5002587;28;20689;-39
2023/12/15 01:42:21;;;;;;;10.95;5.80;;;;;;;7.81;60.03;102376.88;5006500;28;20036;-38
2023/12/15 01:44:46;;;;;;;11.60;5.57;;;;;;;7.77;59.78;102383.09;4998067;28;24897;-41
2023/12/15 01:47:14;;;;;;;11.73;4.80;;;;;;;7.74;59.80;102386.63;5003824;28;20034;-39
2023/12/15 01:49:40;;;;;;;13.20;6.18;;;;;;;7.69;59.88;102390.22;5000838;28;20025;-40
2023/12/15 01:52:06;;;;;;;11.68;5.82;;;;;;;7.65;60.12;102389.44;4999953;28;20380;-40
2023/12/15 01:54:32;;;;;;;11.93;6.10;;;;;;;7.52;59.83;102404.50;4996324;28;20498;-40
2023/12/15 01:56:57;;;;;;;12.40;5.00;;;;;;;7.43;59.80;102399.44;4995050;28;20492;-40
2023/12/15 01:59:22;;;;;;;15.18;6.10;;;;;;;7.29;59.76;102403.19;4999713;28;20029;-40
2023/12/15 02:01:49;;;;;;;12.40;5.38;;;;;;;7.23;60.59;102403.28;5003139;28;20030;-40
2023/12/15 02:04:14;;;;;;;12.63;6.05;;;;;;;7.26;60.76;102413.69;4990291;28;20037;-40
2023/12/15 02:06:40;;;;;;;8.70;5.55;;;;;;;7.10;60.88;102407.00;5000707;28;20037;-40
2023/12/15 02:09:06;;;;;;;12.88;6.15;;;;;;;7.07;60.87;102417.50;5001004;28;20038;-40
2023/12/15 02:11:32;;;;;;;9.95;4.95;;;;;;;6.94;60.75;102415.09;5004072;28;20038;-39
2023/12/15 02:13:57;;;;;;;10.98;5.25;;;;;;;6.87;61.28;102418.69;4998054;28;20089;-39
2023/12/15 02:16:23;;;;;;;10.77;5.15;;;;;;;6.76;61.85;102412.75;5002028;28;20536;-40
2023/12/15 02:18:48;;;;;;;8.25;4.22;;;;;;;6.87;62.21;102421.31;4988905;28;20117;-40
2023/12/15 02:21:14;;;;;;;12.15;5.25;;;;;;;7.04;61.62;102428.91;4995189;28;20033;-40
2023/12/15 02:23:39;;;;;;;11.15;5.40;;;;;;;6.74;61.24;102424.97;4993500;28;20054;-40
2023/12/15 02:26:05;;;;;;;11.85;4.80;;;;;;;6.89;61.35;102423.91;4997682;28;20527;-40
2023/12/15 02:28:30;;;;;;;13.43;5.72;;;;;;;6.68;61.86;102431.16;4997112;28;20120;-40
2023/12/15 02:30:55;;;;;;;13.50;5.22;;;;;;;6.80;62.04;102432.75;5003242;28;20042;-40
2023/12/15 02:33:21;;;;;;;10.80;5.22;;;;;;;6.78;61.74;102432.78;4993912;28;20137;-39
2023/12/15 02:35:48;;;;;;;9.63;4.70;;;;;;;6.91;61.81;102438.69;4991344;28;20017;-40
2023/12/15 02:38:18;;;;;;;10.93;5.50;;;;;;;6.98;61.87;102437.72;4999092;28;20123;-41
2023/12/15 02:40:44;;;;;;;10.18;4.80;;;;;;;7.07;61.79;102443.69;5000188;28;20563;-39
2023/12/15 02:43:10;;;;;;;10.75;5.95;;;;;;;7.15;61.52;102450.53;4997519;28;20033;-40
2023/12/15 02:45:37;;;;;;;8.35;4.38;;;;;;;7.09;61.07;102447.13;5000250;28;20050;-40
2023/12/15 02:48:03;;;;;;;12.20;5.68;;;;;;;7.07;61.16;102444.56;5017017;28;20036;-40
2023/12/15 02:50:28;;;;;;;10.48;4.43;;;;;;;7.15;61.03;102449.66;4999850;28;20029;-40
2023/12/15 02:52:54;;;;;;;11.60;4.75;;;;;;;7.20;60.93;102454.84;4997091;28;20034;-40
2023/12/15 02:55:19;;;;;;;10.75;4.90;;;;;;;7.20;61.02;102453.06;5003547;28;20076;-40
2023/12/15 02:57:45;;;;;;;10.57;5.00;;;;;;;7.20;61.04;102455.69;5004149;28;20037;-40
2023/12/15 03:00:11;;;;;;;10.25;4.68;;;;;;;7.21;60.79;102457.41;4997630;28;20026;-39
2023/12/15 03:02:39;;;;;;;12.30;5.78;;;;;;;7.17;60.56;102461.00;4993339;28;20048;-39
2023/12/15 03:05:05;;;;;;;8.95;4.50;;;;;;;7.15;61.14;102461.00;4997239;28;20030;-39
2023/12/15 03:07:31;;;;;;;10.95;4.60;;;;;;;7.15;60.79;102468.00;4999651;28;20064;-41
2023/12/15 03:09:56;;;;;;;8.77;5.45;;;;;;;7.18;60.55;102473.19;5002271;28;20037;-40
2023/12/15 03:12:22;;;;;;;12.65;5.22;;;;;;;7.13;60.33;102472.38;5000668;28;20034;-39
2023/12/15 03:14:48;;;;;;;7.85;4.45;;;;;;;7.13;60.34;102472.38;5001237;28;20053;-40
2023/12/15 03:17:16;;;;;;;10.52;5.38;;;;;;;7.11;60.38;102482.88;4998579;28;21244;-40
2023/12/15 03:19:42;;;;;;;12.95;5.38;;;;;;;7.06;60.29;102476.84;4999966;28;20036;-39
2023/12/15 03:22:07;;;;;;;10.13;5.53;;;;;;;7.04;60.76;102464.66;5002347;28;20076;-40
2023/12/15 03:24:33;;;;;;;10.13;4.82;;;;;;;7.09;60.50;102474.19;5001013;28;20034;-40
2023/12/15 03:26:58;;;;;;;12.07;5.53;;;;;;;7.07;60.65;102470.75;4999512;28;20037;-40
2023/12/15 03:29:23;;;;;;;10.50;5.30;;;;;;;7.07;60.62;102473.34;5009206;28;20091;-40
2023/12/15 03:31:49;;;;;;;11.30;5.20;;;;;;;7.04;60.58;102469.91;5005982;28;20117;-39
2023/12/15 03:34:14;;;;;;;9.82;4.50;;;;;;;7.06;60.46;102478.59;5003634;28;20064;-40
2023/12/15 03:36:40;;;;;;;9.45;5.35;;;;;;;7.03;60.59;102473.44;5005158;28;20112;-39
2023/12/15 03:39:06;;;;;;;7.70;4.35;;;;;;;7.02;60.77;102488.25;5005768;28;20034;-40
2023/12/15 03:41:32;;;;;;;12.30;4.90;;;;;;;6.96;60.54;102488.31;5004683;28;20436;-40
2023/12/15 03:43:58;;;;;;;11.98;4.80;;;;;;;6.83;60.80;102498.13;5004215;28;20060;-40
2023/12/15 03:46:23;;;;;;;13.07;5.60;;;;;;;6.77;61.16;102493.84;5009109;28;20034;-40
2023/12/15 03:48:49;;;;;;;13.05;5.68;;;;;;;6.39;61.02;102490.84;5003584;28;20099;-41
2023/12/15 03:51:14;;;;;;;11.77;4.20;;;;;;;6.51;61.60;102492.41;5005621;28;20026;-40
2023/12/15 03:53:40;;;;;;;11.30;5.25;;;;;;;6.34;61.74;102487.41;5008757;28;20120;-40
2023/12/15 03:56:07;;;;;;;10.52;4.43;;;;;;;6.31;61.99;102483.97;5011255;28;20037;-40
2023/12/15 03:58:32;;;;;;;8.98;4.75;;;;;;;6.31;62.20;102483.97;5007384;28;20021;-40
2023/12/15 04:00:58;;;;;;;10.80;4.72;;;;;;;6.48;61.90;102488.97;5005680;28;20543;-39
2023/12/15 04:03:24;;;;;;;11.52;4.72;;;;;;;6.58;61.47;102489.72;5006290;28;20037;-40
2023/12/15 04:05:49;;;;;;;12.00;4.80;;;;;;;6.58;61.25;102495.81;5005128;28;20060;-40
2023/12/15 04:08:14;;;;;;;9.75;4.05;;;;;;;6.69;61.33;102493.06;5002455;28;20038;-40
2023/12/15 04:10:40;;;;;;;10.63;4.78;;;;;;;6.73;61.07;102499.16;5008977;28;20056;-39
2023/12/15 04:13:06;;;;;;;9.98;5.68;;;;;;;6.74;60.88;102503.47;5015745;28;20053;-40
2023/12/15 04:15:31;;;;;;;12.68;4.90;;;;;;;6.74;61.01;102503.47;5005224;28;20030;-40
2023/12/15 04:17:57;;;;;;;12.02;4.82;;;;;;;6.76;61.09;102506.94;5003773;28;20045;-41
2023/12/15 04:20:22;;;;;;;19.38;5.22;;;;;;;6.77;60.67;102504.31;4999662;28;20037;-40
2023/12/15 04:22:48;;;;;;;13.95;4.90;;;;;;;6.79;60.38;102504.28;5004519;28;20032;-39
2023/12/15 04:25:14;;;;;;;10.38;5.03;;;;;;;6.79;60.60;102507.78;5009187;28;20070;-40
2023/12/15 04:27:39;;;;;;;13.20;5.97;;;;;;;6.79;60.72;102507.78;5008631;28;20107;-39
2023/12/15 04:30:05;;;;;;;15.73;6.05;;;;;;;6.78;60.47;102511.28;5003049;28;20034;-40
2023/12/15 04:32:31;;;;;;;14.88;7.13;;;;;;;6.77;60.89;102512.16;5005846;28;20109;-40
2023/12/15 04:34:56;;;;;;;12.50;6.60;;;;;;;6.76;60.76;102514.78;5007456;28;20523;-40
2023/12/15 04:37:22;;;;;;;13.27;6.00;;;;;;;6.79;60.86;102517.34;5006827;28;20030;-39
2023/12/15 04:39:47;;;;;;;16.13;6.22;;;;;;;6.70;60.51;102518.34;5008598;28;20025;-40
2023/12/15 04:42:13;;;;;;;10.85;5.43;;;;;;;6.65;60.35;102514.94;5006311;28;20034;-40
2023/12/15 04:44:38;;;;;;;11.15;5.30;;;;;;;6.65;60.61;102522.78;5012211;28;20034;-40
2023/12/15 04:47:04;;;;;;;6.05;2.53;;;;;;;6.69;60.95;102527.06;5004060;28;20141;-39
2023/12/15 04:49:29;;;;;;;6.05;2.90;;;;;;;6.71;60.46;102526.19;4999390;28;20053;-40
2023/12/15 04:51:55;;;;;;;8.57;4.85;;;;;;;6.73;60.47;102522.69;5000548;28;20030;-41
2023/12/15 04:54:20;;;;;;;10.85;4.38;;;;;;;6.69;60.68;102525.34;5005837;28;20034;-40
2023/12/15 04:56:46;;;;;;;14.23;5.35;;;;;;;6.68;60.74;102528.84;5006046;28;20084;-40
2023/12/15 04:59:11;;;;;;;9.48;4.65;;;;;;;6.61;60.75;102529.78;5001009;28;20931;-40
2023/12/15 05:01:37;;;;;;;11.93;4.80;;;;;;;6.43;60.67;102530.03;5005876;28;20118;-40
2023/12/15 05:04:02;;;;;;;11.63;5.00;;;;;;;6.29;61.18;102532.78;5003132;28;20029;-40
2023/12/15 05:06:28;;;;;;;17.20;6.63;;;;;;;6.14;61.66;102533.81;4998621;28;20037;-40
2023/12/15 05:08:55;;;;;;;14.40;5.40;;;;;;;6.19;61.80;102538.13;5007159;28;20033;-40
2023/12/15 05:11:20;;;;;;;11.02;5.28;;;;;;;6.22;62.03;102540.69;5004394;28;20034;-40
2023/12/15 05:13:46;;;;;;;11.48;5.47;;;;;;;6.19;62.23;102539.84;5009614;28;20044;-40
2023/12/15 05:16:11;;;;;;;10.48;5.18;;;;;;;6.25;62.11;102534.56;5003207;28;20034;-40
2023/12/15 05:18:37;;;;;;;10.43;5.28;;;;;;;6.43;61.92;102528.28;5008754;28;20054;-39
2023/12/15 05:21:03;;;;;;;13.73;5.82;;;;;;;6.57;61.59;102533.34;5006776;28;20566;-40
2023/12/15 05:23:29;;;;;;;17.85;8.48;;;;;;;6.58;61.93;102534.19;5005425;28;20087;-40
2023/12/15 05:25:54;;;;;;;20.33;9.10;;;;;;;6.70;61.41;102534.94;5009769;28;20049;-40
2023/12/15 05:28:20;;;;;;;22.75;9.00;;;;;;;6.81;61.66;102541.75;5005375;28;20432;-40
2023/12/15 05:30:45;;;;;;;15.15;7.47;;;;;;;6.90;60.90;102536.41;5004790;28;20130;-40
2023/12/15 05:33:11;;;;;;;12.88;5.72;;;;;;;6.95;60.54;102542.44;4994369;28;20025;-41
2023/12/15 05:35:36;;;;;;;13.75;6.85;;;;;;;7.00;60.60;102545.00;5003592;28;20041;-40
2023/12/15 05:38:02;;;;;;;15.80;7.70;;;;;;;7.01;60.58;102538.88;4998626;28;20120;-39
2023/12/15 05:40:28;;;;;;;11.77;6.88;;;;;;;7.02;60.87;102537.97;5004175;28;20557;-40
2023/12/15 05:42:54;;;;;;;14.07;6.00;;;;;;;6.94;60.43;102548.56;5003605;28;20486;-40
2023/12/15 05:45:19;;;;;;;10.30;5.03;;;;;;;7.00;60.56;102551.09;5008699;28;20128;-40
2023/12/15 05:47:45;;;;;;;9.25;4.57;;;;;;;7.03;60.38;102560.66;5001007;28;20061;-41
2023/12/15 05:50:12;;;;;;;11.88;5.40;;;;;;;6.96;60.46;102559.00;4992962;28;20041;-39
2023/12/15 05:52:37;;;;;;;8.32;3.78;;;;;;;6.83;60.62;102566.16;4998552;28;20044;-40
2023/12/15 05:55:03;;;;;;;13.55;6.47;;;;;;;6.84;60.75;102562.66;5003668;28;20400;-40
2023/12/15 05:57:28;;;;;;;14.82;5.60;;;;;;;6.71;60.44;102561.94;5005695;28;20501;-40
2023/12/15 05:59:53;;;;;;;11.90;5.13;;;;;;;6.64;60.75;102578.59;5008222;28;20049;-40
2023/12/15 06:02:19;;;;;;;14.32;5.55;;;;;;;6.48;60.83;102575.28;5006174;28;20030;-40
2023/12/15 06:04:44;;;;;;;13.05;6.35;;;;;;;6.35;61.13;102580.66;5002149;28;20034;-40
2023/12/15 06:07:10;;;;;;;11.50;5.05;;;;;;;6.33;61.37;102577.19;4999128;28;20033;-39
2023/12/15 06:09:38;;;;;;;10.35;4.78;;;;;;;6.49;61.57;102577.03;4996027;28;20165;-40
2023/12/15 06:12:04;;;;;;;10.48;5.18;;;;;;;6.57;61.62;102585.66;5001710;28;20053;-41
2023/12/15 06:14:30;;;;;;;8.93;4.30;;;;;;;6.55;61.60;102585.66;5000773;28;20552;-40
2023/12/15 06:16:55;;;;;;;10.57;5.03;;;;;;;6.46;61.52;102583.16;5003311;28;20137;-40
2023/12/15 06:19:21;;;;;;;13.15;4.78;;;;;;;6.60;61.73;102584.75;5000181;28;20057;-40
2023/12/15 06:21:46;;;;;;;11.88;6.30;;;;;;;6.66;61.46;102596.00;5002823;28;20386;-40
2023/12/15 06:24:11;;;;;;;14.13;6.18;;;;;;;6.60;61.00;102590.84;5001588;28;20447;-40
2023/12/15 06:26:37;;;;;;;13.95;5.57;;;;;;;6.56;61.50;102586.53;5003136;28;20393;-40
2023/12/15 06:29:03;;;;;;;13.00;5.72;;;;;;;6.46;61.23;102592.75;4997269;28;20108;-40
2023/12/15 06:31:29;;;;;;;11.88;5.43;;;;;;;6.63;61.56;102606.50;5000158;28;20035;-40
2023/12/15 06:33:55;;;;;;;13.13;5.28;;;;;;;6.76;61.32;102627.28;5002477;28;20445;-39
2023/12/15 06:36:21;;;;;;;9.80;5.32;;;;;;;6.70;61.01;102623.88;5002151;28;20508;-40
2023/12/15 06:38:47;;;;;;;13.27;5.03;;;;;;;6.66;61.17;102631.75;5000946;28;20493;-40
2023/12/15 06:41:13;;;;;;;15.75;4.43;;;;;;;6.77;61.38;102624.66;4999407;28;20029;-40
2023/12/15 06:43:42;;;;;;;12.00;5.75;;;;;;;6.80;60.96;102629.00;5003034;28;20040;-40
2023/12/15 06:46:08;;;;;;;18.17;7.40;;;;;;;6.47;60.73;102631.97;4995103;28;20045;-41
2023/12/15 06:48:34;;;;;;;14.23;5.75;;;;;;;6.49;61.39;102630.22;5000324;28;20056;-41
2023/12/15 06:51:00;;;;;;;10.40;5.40;;;;;;;6.54;61.51;102638.84;4996931;28;20030;-40
2023/12/15 06:53:25;;;;;;;16.30;6.05;;;;;;;6.38;61.13;102637.28;4999648;28;20033;-40
2023/12/15 06:55:50;;;;;;;10.63;5.22;;;;;;;6.61;61.41;102637.03;5003116;28;20493;-40
2023/12/15 06:58:16;;;;;;;8.57;3.63;;;;;;;6.34;61.00;102633.81;4999092;28;20137;-40
2023/12/15 07:00:42;;;;;;;11.98;5.90;;;;;;;6.34;61.43;102641.66;5002880;28;21379;-39
2023/12/15 07:03:08;;;;;;;8.07;4.53;;;;;;;6.55;61.72;102644.97;5004901;28;20034;-41
2023/12/15 07:05:34;;;;;;;9.75;5.65;;;;;;;6.61;61.66;102639.66;4981782;28;20030;-41
2023/12/15 07:08:01;;;;;;;11.95;5.32;;;;;;;6.39;60.94;102652.09;4998905;28;20764;-40
2023/12/15 07:10:26;;;;;;;11.90;5.47;;;;;;;6.60;61.43;102664.06;5002324;28;20510;-40
2023/12/15 07:12:51;;;;;;;9.18;4.85;;;;;;;6.46;61.87;102666.84;5001008;28;20034;-39
2023/12/15 07:15:17;;;;;;;13.52;5.88;;;;;;;6.45;61.44;102666.84;4997728;28;20034;-40
2023/12/15 07:17:42;;;;;;;12.93;5.50;;;;;;;6.60;61.78;102669.31;5002831;28;20064;-40
2023/12/15 07:20:08;;;;;;;12.10;5.72;;;;;;;6.58;61.63;102665.84;5004456;28;20030;-39
2023/12/15 07:22:34;;;;;;;13.80;6.20;;;;;;;6.21;61.77;102677.50;4997281;28;20030;-39
2023/12/15 07:25:00;;;;;;;11.45;3.80;;;;;;;6.23;61.86;102680.13;5001414;28;20112;-40
2023/12/15 07:27:25;;;;;;;15.05;6.03;;;;;;;6.28;62.09;102672.25;4998865;28;20034;-40
2023/12/15 07:29:52;;;;;;;11.43;5.43;;;;;;;6.18;61.90;102682.78;4996445;28;20030;-39
2023/12/15 07:32:17;;;;;;;12.48;6.13;;;;;;;6.18;62.04;102682.78;5001155;28;20995;-39
2023/12/15 07:34:43;;;;;;;10.77;5.50;;;;;;;6.31;62.19;102682.69;5004607;28;20033;-40
2023/12/15 07:37:08;;;;;;;14.07;6.38;;;;;;;6.33;62.11;102684.38;5001800;28;20037;-40
2023/12/15 07:39:34;;;;;;;16.38;7.63;;;;;;;6.44;62.01;102686.03;5003007;28;20100;-41
2023/12/15 07:41:59;;;;;;;15.35;7.20;;;;;;;6.61;61.75;102686.75;5002589;28;20110;-41
2023/12/15 07:44:24;;;;;;;12.45;6.45;;;;;;;6.65;62.01;102671.91;4998345;28;20045;-40
2023/12/15 07:46:53;;;;;;;10.48;5.45;;;;;;;6.81;61.80;102677.81;5001710;28;20038;-40
2023/12/15 07:49:19;;;;;;;11.10;6.00;;;;;;;6.90;61.18;102671.63;4998354;28;20509;-40
2023/12/15 07:51:45;;;;;;;19.52;8.20;;;;;;;6.90;60.79;102672.47;4991016;28;20037;-39
2023/12/15 07:54:11;;;;;;;12.98;6.40;;;;;;;6.88;61.08;102673.38;4997803;28;20037;-39
2023/12/15 07:56:36;;;;;;;12.35;7.20;;;;;;;6.70;61.08;102676.19;4994628;28;20035;-41
2023/12/15 07:59:02;;;;;;;10.98;5.72;;;;;;;6.45;61.14;102678.19;4992869;28;20038;-40
2023/12/15 08:01:27;;;;;;;14.45;6.85;;;;;;;6.38;61.78;102672.16;4995598;28;20042;-40
2023/12/15 08:03:53;;;;;;;31.85;7.65;;;;;;;6.04;62.00;102672.41;5002161;28;20485;-39
2023/12/15 08:06:19;;;;;;;10.90;5.63;;;;;;;6.03;62.68;102673.31;4993634;28;20487;-40
2023/12/15 08:08:46;;;;;;;10.00;5.88;;;;;;;5.87;63.13;102684.72;4996372;28;20069;-39
2023/12/15 08:11:13;;;;;;;15.65;5.45;;;;;;;5.72;63.50;102683.94;5005216;28;20030;-41
2023/12/15 08:13:39;;;;;;;10.60;5.45;;;;;;;5.54;64.13;102684.03;5003594;28;20064;-40
2023/12/15 08:16:06;;;;;;;12.18;6.30;;;;;;;5.34;64.42;102685.00;5003591;28;20068;-39
2023/12/15 08:18:32;;;;;;;13.68;6.13;;;;;;;5.35;64.60;102699.81;4999924;28;20096;-41
2023/12/15 08:20:58;;;;;;;17.35;6.90;;;;;;;5.56;64.02;102697.94;5002463;28;20038;-41
2023/12/15 08:23:24;;;;;;;11.90;5.72;;;;;;;5.11;64.40;102685.97;5001727;28;20061;-40
2023/12/15 08:25:49;;;;;;;13.95;5.85;;;;;;;5.28;64.83;102698.09;4996519;28;20069;-40
2023/12/15 08:28:15;;;;;;;16.65;6.50;;;;;;;5.21;64.75;102686.81;5004244;28;20053;-40
2023/12/15 08:30:41;;;;;;;15.45;6.80;;;;;;;5.19;65.20;102694.66;5002179;28;20040;-40
2023/12/15 08:33:07;;;;;;;9.73;5.13;;;;;;;5.30;65.11;102691.13;4998692;28;20116;-40
2023/12/15 08:35:32;;;;;;;13.48;6.35;;;;;;;5.08;64.69;102693.78;5005366;28;20121;-40
2023/12/15 08:37:58;;;;;;;17.63;7.53;;;;;;;5.19;64.38;102694.66;5005984;28;20144;-41
2023/12/15 08:40:25;;;;;;;14.43;5.85;;;;;;;5.06;65.54;102698.19;4997057;28;20496;-40
2023/12/15 08:42:50;;;;;;;14.02;6.00;;;;;;;4.96;65.86;102696.44;5002005;28;21494;-40
2023/12/15 08:45:16;;;;;;;14.30;6.45;;;;;;;5.02;65.67;102706.88;5000706;28;20030;-40
2023/12/15 08:47:42;;;;;;;12.32;6.28;;;;;;;5.05;65.58;102717.31;5008218;28;20048;-40
2023/12/15 08:50:07;;;;;;;14.18;6.43;;;;;;;5.25;65.41;102719.84;4999094;28;20088;-41
2023/12/15 08:52:33;;;;;;;8.90;4.28;;;;;;;5.04;65.45;102726.00;5000220;28;20026;-41
2023/12/15 08:54:59;;;;;;;16.42;6.60;;;;;;;4.85;65.73;102731.25;5004444;28;20586;-41
2023/12/15 08:57:24;;;;;;;16.90;6.60;;;;;;;4.96;66.18;102738.19;5007866;28;20580;-41
2023/12/15 08:59:49;;;;;;;15.95;7.53;;;;;;;5.00;65.96;102746.00;5001437;28;20143;-40
2023/12/15 09:02:15;;;;;;;15.27;7.30;;;;;;;4.98;66.12;102742.56;5003652;28;20034;-40
2023/12/15 09:04:41;;;;;;;20.67;8.10;;;;;;;5.02;65.64;102743.41;5002252;28;20064;-40
2023/12/15 09:07:09;;;;;;;16.75;7.45;;;;;;;5.14;65.93;102753.81;5000997;28;20524;-41
2023/12/15 09:09:37;;;;;;;18.50;7.32;;;;;;;5.24;65.48;102748.56;5001370;28;20046;-41
2023/12/15 09:12:02;;;;;;;16.55;8.50;;;;;;;5.37;65.79;102758.06;5001468;28;20032;-41
2023/12/15 09:14:29;;;;;;;17.65;7.15;;;;;;;5.17;65.66;102769.47;5006305;28;20026;-40
2023/12/15 09:16:55;;;;;;;18.48;8.70;;;;;;;5.32;66.09;102762.47;5008627;28;20475;-40
2023/12/15 09:19:21;;;;;;;16.27;7.55;;;;;;;5.36;65.96;102769.44;5003995;28;20457;-40
2023/12/15 09:21:47;;;;;;;15.55;7.35;;;;;;;5.52;65.37;102769.38;5007672;28;20038;-40
2023/12/15 09:24:17;;;;;;;22.35;9.13;;;;;;;5.27;65.57;102767.72;5006217;28;20037;-40
2023/12/15 09:26:44;;;;;;;22.45;9.02;;;;;;;5.44;65.73;102769.41;5006614;28;20110;-39
2023/12/15 09:29:10;;;;;;;18.10;8.60;;;;;;;5.56;65.34;102776.28;5008718;28;20500;-40
2023/12/15 09:31:36;;;;;;;19.15;7.78;;;;;;;5.46;65.72;102783.28;5008520;28;20097;-40
2023/12/15 09:34:02;;;;;;;20.92;9.05;;;;;;;5.59;65.68;102790.22;5010509;28;20038;-40
2023/12/15 09:36:28;;;;;;;20.77;9.05;;;;;;;5.64;65.62;102790.22;5013139;28;20021;-40
2023/12/15 09:38:53;;;;;;;20.75;7.82;;;;;;;5.65;65.36;102787.56;4994488;28;20044;-41
2023/12/15 09:41:20;;;;;;;25.17;8.85;;;;;;;5.74;65.50;102789.28;5005205;28;20042;-40
2023/12/15 09:43:46;;;;;;;19.17;7.60;;;;;;;5.49;65.94;102792.00;5007090;28;20079;-40
2023/12/15 09:46:11;;;;;;;22.05;8.18;;;;;;;5.44;65.78;102791.13;5001067;28;20033;-40
2023/12/15 09:48:37;;;;;;;14.32;5.30;;;;;;;5.54;65.56;102806.78;5006284;28;20034;-40
2023/12/15 09:51:07;;;;;;;20.67;9.13;;;;;;;5.43;65.87;102812.91;4999395;28;20912;-40
2023/12/15 09:53:38;;;;;;;17.50;7.38;;;;;;;5.58;66.13;102806.78;5006205;28;20029;-41
2023/12/15 09:56:04;;;;;;;20.05;8.57;;;;;;;5.62;66.57;102823.28;5005202;28;20033;-40
2023/12/15 09:58:29;;;;;;;18.30;8.88;;;;;;;5.43;66.02;102818.13;5008725;28;20396;-40
2023/12/15 10:00:55;;;;;;;25.52;7.93;;;;;;;5.70;65.83;102807.59;5011008;28;20026;-41
2023/12/15 10:03:22;;;;;;;22.20;9.55;;;;;;;5.71;65.92;102797.13;5001999;28;20065;-41
2023/12/15 10:05:47;;;;;;;21.30;8.25;;;;;;;5.63;66.20;102810.22;5007422;28;20053;-41
2023/12/15 10:08:12;;;;;;;19.90;7.60;;;;;;;6.01;65.61;102813.56;5000768;28;20033;-40
2023/12/15 10:10:38;;;;;;;20.38;8.20;;;;;;;5.73;65.68;102821.50;5010502;28;20112;-40
2023/12/15 10:13:04;;;;;;;22.75;8.52;;;;;;;5.82;65.69;102809.28;5000856;28;20436;-39
2023/12/15 10:15:29;;;;;;;22.70;9.20;;;;;;;5.89;65.49;102796.19;5006023;28;20907;-41
2023/12/15 10:17:54;;;;;;;25.08;10.40;;;;;;;5.59;66.67;102797.19;4998475;28;20507;-40
2023/12/15 10:20:20;;;;;;;23.27;9.27;;;;;;;5.73;66.51;102795.38;5007285;28;20045;-40
2023/12/15 10:22:47;;;;;;;29.13;9.70;;;;;;;5.76;66.50;102784.03;5007341;28;20030;-40
2023/12/15 10:25:22;;;;;;;27.25;10.30;;;;;;;5.85;66.41;102789.25;5009266;28;20085;-40
2023/12/15 10:27:48;;;;;;;25.08;10.75;;;;;;;5.95;66.07;102782.22;5004836;28;20531;-41
2023/12/15 10:30:16;;;;;;;20.95;6.85;;;;;;;6.00;66.24;102787.44;5007048;28;20029;-41
2023/12/15 10:32:42;;;;;;;23.08;9.38;;;;;;;5.78;66.47;102782.28;5005786;28;20043;-40
2023/12/15 10:35:10;;;;;;;24.50;9.90;;;;;;;5.84;66.91;102778.78;4998919;28;20025;-39
2023/12/15 10:37:36;;;;;;;24.23;9.98;;;;;;;6.22;66.55;102770.75;5005346;28;20021;-39
2023/12/15 10:40:02;;;;;;;23.80;9.98;;;;;;;6.37;66.02;102782.84;5010089;28;20112;-40
2023/12/15 10:42:29;;;;;;;27.50;10.10;;;;;;;6.04;66.51;102776.13;5003451;28;20026;-41
2023/12/15 10:44:57;;;;;;;23.10;9.88;;;;;;;6.28;66.13;102780.28;5005895;28;20057;-40
2023/12/15 10:47:24;;;;;;;25.50;9.80;;;;;;;5.94;66.76;102788.31;5003892;28;20032;-41
2023/12/15 10:49:52;;;;;;;28.38;10.40;;;;;;;6.31;66.69;102790.72;5003502;28;20109;-43
2023/12/15 10:52:21;;;;;;;26.17;10.45;;;;;;;6.32;66.58;102792.47;5005563;28;20032;-41
2023/12/15 10:54:50;;;;;;;23.83;9.23;;;;;;;6.02;67.47;102797.00;5003718;28;20033;-40
2023/12/15 10:57:15;;;;;;;24.63;10.15;;;;;;;6.23;66.42;102792.53;5009470;28;20497;-40
2023/12/15 10:59:41;;;;;;;26.15;10.50;;;;;;;6.25;66.65;102777.72;5002836;28;20109;-41
2023/12/15 11:02:12;;;;;;;34.25;12.25;;;;;;;6.02;67.32;102781.31;5007169;28;20038;-41
2023/12/15 11:04:38;;;;;;;24.83;11.40;;;;;;;6.31;66.79;102782.88;5003250;28;20060;-40
2023/12/15 11:07:04;;;;;;;27.92;12.48;;;;;;;6.32;66.45;102779.41;5004932;28;20064;-40
2023/12/15 11:09:34;;;;;;;25.20;11.15;;;;;;;6.66;66.24;102784.38;5001110;28;20041;-41
2023/12/15 11:12:19;;;;;;;28.88;12.75;;;;;;;6.34;66.34;102784.63;5006636;28;20053;-40
2023/12/15 11:14:53;;;;;;;33.60;13.55;;;;;;;6.50;66.17;102788.88;5004365;28;20036;-40
2023/12/15 11:17:20;;;;;;;37.28;12.93;;;;;;;6.71;65.82;102782.59;5004138;28;20032;-40
2023/12/15 11:19:56;;;;;;;32.10;13.60;;;;;;;6.58;66.03;102794.00;4997116;28;20049;-41